createdAt,value
2023-04-01T00:01:17.654Z,5.38
2023-04-01T00:03:45.899Z,3.65
2023-04-01T00:06:19.538Z,4.00
2023-04-01T00:08:47.634Z,4.05
2023-04-01T00:11:20.464Z,4.35
2023-04-01T00:13:48.850Z,3.03
2023-04-01T00:18:49.985Z,3.70
2023-04-01T00:21:19.267Z,4.13
2023-04-01T00:23:47.233Z,3.20
2023-04-01T00:26:15.862Z,3.28
2023-04-01T00:28:43.250Z,4.32
2023-04-01T00:31:12.350Z,4.35
2023-04-01T00:33:42.194Z,4.05
2023-04-01T00:36:30.496Z,4.05
2023-04-01T00:39:02.340Z,3.92
2023-04-01T00:41:29.641Z,4.57
2023-04-01T00:44:27.076Z,3.92
2023-04-01T00:46:54.971Z,5.32
2023-04-01T00:49:30.776Z,5.00
2023-04-01T00:52:03.815Z,5.32
2023-04-01T00:54:33.410Z,6.20
2023-04-01T00:57:26.339Z,6.00
2023-04-01T00:59:56.734Z,6.55
2023-04-01T01:02:26.053Z,7.70
2023-04-01T01:04:53.578Z,6.18
2023-04-01T01:08:23.136Z,6.05
2023-04-01T01:10:52.911Z,7.15
2023-04-01T01:13:56.514Z,7.75
2023-04-01T01:16:45.594Z,7.07
2023-04-01T01:20:26.348Z,9.15
2023-04-01T01:23:39.683Z,8.25
2023-04-01T01:26:59.044Z,8.82
2023-04-01T01:30:08.860Z,11.10
2023-04-01T01:33:07.602Z,9.30
2023-04-01T01:36:00.756Z,10.43
2023-04-01T01:38:34.904Z,9.10
2023-04-01T01:41:14.959Z,10.30
2023-04-01T01:43:49.275Z,11.65
2023-04-01T01:46:24.306Z,11.82
2023-04-01T01:48:55.661Z,11.02
2023-04-01T01:51:23.984Z,11.75
2023-04-01T01:53:51.839Z,10.80
2023-04-01T01:56:28.209Z,10.65
2023-04-01T01:59:10.913Z,11.95
2023-04-01T02:01:49.692Z,9.88
2023-04-01T02:04:22.751Z,10.38
2023-04-01T02:07:03.643Z,10.68
2023-04-01T02:09:31.941Z,10.82
2023-04-01T02:12:07.391Z,8.05
2023-04-01T02:15:10.888Z,7.65
2023-04-01T02:17:49.541Z,8.15
2023-04-01T02:20:26.001Z,9.45
2023-04-01T02:23:00.697Z,8.48
2023-04-01T02:25:38.596Z,9.52
2023-04-01T02:28:10.748Z,9.73
2023-04-01T02:30:43.910Z,7.57
2023-04-01T02:33:12.901Z,6.22
2023-04-01T02:35:42.559Z,6.25
2023-04-01T02:38:10.626Z,8.43
2023-04-01T02:40:59.292Z,10.02
2023-04-01T02:43:27.693Z,9.95
2023-04-01T02:45:55.364Z,10.00
2023-04-01T02:48:22.899Z,8.13
2023-04-01T02:50:50.482Z,6.93
2023-04-01T02:53:20.963Z,6.65
2023-04-01T02:55:51.343Z,6.63
2023-04-01T02:58:19.491Z,5.18
2023-04-01T03:00:46.928Z,5.65
2023-04-01T03:03:14.915Z,5.70
2023-04-01T03:05:42.548Z,5.20
2023-04-01T03:08:11.396Z,6.03
2023-04-01T03:10:38.698Z,7.07
2023-04-01T03:13:07.230Z,7.18
2023-04-01T03:15:36.984Z,6.97
2023-04-01T03:18:04.651Z,6.25
2023-04-01T03:20:32.175Z,6.35
2023-04-01T03:22:59.621Z,6.68
2023-04-01T03:25:29.633Z,6.47
2023-04-01T03:28:00.554Z,7.68
2023-04-01T03:30:32.161Z,8.27
2023-04-01T03:33:01.164Z,10.02
2023-04-01T03:35:29.114Z,9.98
2023-04-01T03:37:57.839Z,10.85
2023-04-01T03:40:27.439Z,9.85
2023-04-01T03:42:57.389Z,12.85
2023-04-01T03:45:24.895Z,11.57
2023-04-01T03:47:53.519Z,12.30
2023-04-01T03:50:21.664Z,10.30
2023-04-01T03:52:48.993Z,11.15
2023-04-01T03:55:17.642Z,12.02
2023-04-01T03:57:45.392Z,9.60
2023-04-01T04:00:20.176Z,11.73
2023-04-01T04:02:52.432Z,10.80
2023-04-01T04:05:27.032Z,9.98
2023-04-01T04:07:58.584Z,11.45
2023-04-01T04:10:26.972Z,8.93
2023-04-01T04:12:54.579Z,7.82
2023-04-01T04:15:24.700Z,7.78
2023-04-01T04:17:52.481Z,7.53
2023-04-01T04:20:19.825Z,6.45
2023-04-01T04:22:48.615Z,6.35
2023-04-01T04:25:16.549Z,5.90
2023-04-01T04:27:45.218Z,6.95
2023-04-01T04:30:14.790Z,7.25
2023-04-01T04:32:43.187Z,8.38
2023-04-01T04:35:15.149Z,6.78
2023-04-01T04:37:42.474Z,6.70
2023-04-01T04:40:10.157Z,7.43
2023-04-01T04:42:37.517Z,7.13
2023-04-01T04:45:16.075Z,6.80
2023-04-01T04:47:52.535Z,6.45
2023-04-01T04:50:20.380Z,7.15
2023-04-01T04:52:49.066Z,6.53
2023-04-01T04:55:16.643Z,7.00
2023-04-01T04:57:47.409Z,7.28
2023-04-01T05:00:16.250Z,6.95
2023-04-01T05:02:50.297Z,8.13
2023-04-01T05:05:18.899Z,8.68
2023-04-01T05:07:47.448Z,8.55
2023-04-01T05:10:14.909Z,9.38
2023-04-01T05:12:42.299Z,9.57
2023-04-01T05:15:11.971Z,9.80
2023-04-01T05:17:41.001Z,10.57
2023-04-01T05:20:18.966Z,10.30
2023-04-01T05:22:46.323Z,9.88
2023-04-01T05:25:15.349Z,11.95
2023-04-01T05:27:42.627Z,12.13
2023-04-01T05:30:12.236Z,13.60
2023-04-01T05:32:47.484Z,12.10
2023-04-01T05:35:14.955Z,11.52
2023-04-01T05:37:42.227Z,10.80
2023-04-01T05:40:14.280Z,13.35
2023-04-01T05:42:48.132Z,12.07
2023-04-01T05:45:17.431Z,11.27
2023-04-01T05:47:50.850Z,11.90
2023-04-01T05:50:19.443Z,13.13
2023-04-01T05:52:49.604Z,14.90
2023-04-01T05:55:17.637Z,13.80
2023-04-01T05:57:49.260Z,14.07
2023-04-01T06:00:18.783Z,18.23
2023-04-01T06:02:47.438Z,19.38
2023-04-01T06:05:28.589Z,18.40
2023-04-01T06:08:06.151Z,19.45
2023-04-01T06:11:27.371Z,20.80
2023-04-01T06:14:39.879Z,21.50
2023-04-01T06:17:33.940Z,20.65
2023-04-01T06:21:03.070Z,22.95
2023-04-01T06:23:55.749Z,24.13
2023-04-01T06:27:29.452Z,23.50
2023-04-01T06:30:38.499Z,25.05
2023-04-01T06:34:11.120Z,22.73
2023-04-01T06:37:33.655Z,21.48
2023-04-01T06:41:02.495Z,20.92
2023-04-01T06:44:11.802Z,20.02
2023-04-01T06:47:26.561Z,17.25
2023-04-01T06:50:55.503Z,17.48
2023-04-01T06:54:21.528Z,17.27
2023-04-01T06:57:44.906Z,18.33
2023-04-01T07:00:28.712Z,17.55
2023-04-01T07:03:24.657Z,18.77
2023-04-01T07:05:57.472Z,20.27
2023-04-01T07:08:30.821Z,19.42
2023-04-01T07:11:05.325Z,21.50
2023-04-01T07:14:02.291Z,21.60
2023-04-01T07:16:53.543Z,19.55
2023-04-01T07:19:47.920Z,21.08
2023-04-01T07:22:42.645Z,22.83
2023-04-01T07:25:30.865Z,21.20
2023-04-01T07:28:18.613Z,19.23
2023-04-01T07:31:44.363Z,19.27
2023-04-01T07:35:08.032Z,23.02
2023-04-01T07:38:11.337Z,20.58
2023-04-01T07:41:16.762Z,19.60
2023-04-01T07:44:25.342Z,16.67
2023-04-01T07:47:25.236Z,16.73
2023-04-01T07:50:50.053Z,16.88
2023-04-01T07:53:46.955Z,18.08
2023-04-01T07:56:55.752Z,16.48
2023-04-01T08:00:29.002Z,17.73
2023-04-01T08:04:05.822Z,17.25
2023-04-01T08:07:27.685Z,18.45
2023-04-01T08:11:29.071Z,18.70
2023-04-01T08:14:32.737Z,17.67
2023-04-01T08:18:00.137Z,24.33
2023-04-01T08:21:08.134Z,22.08
2023-04-01T08:23:48.523Z,19.10
2023-04-01T08:26:46.377Z,18.23
2023-04-01T08:29:41.911Z,21.48
2023-04-01T08:32:38.461Z,19.70
2023-04-01T08:35:40.518Z,18.33
2023-04-01T08:38:33.043Z,21.42
2023-04-01T08:41:53.411Z,19.52
2023-04-01T08:45:25.537Z,20.95
2023-04-01T08:48:42.836Z,20.33
2023-04-01T08:52:20.276Z,20.83
2023-04-01T08:55:34.699Z,19.92
2023-04-01T08:59:25.224Z,21.10
2023-04-01T09:06:05.570Z,20.17
2023-04-01T09:09:12.734Z,21.17
2023-04-01T09:12:09.570Z,20.67
2023-04-01T09:15:23.770Z,23.92
2023-04-01T09:18:31.314Z,22.95
2023-04-01T09:21:51.831Z,19.50
2023-04-01T09:24:33.299Z,25.10
2023-04-01T09:28:19.697Z,22.20
2023-04-01T09:31:52.447Z,21.63
2023-04-01T09:35:24.464Z,21.05
2023-04-01T09:38:24.385Z,22.45
2023-04-01T09:41:48.464Z,20.40
2023-04-01T09:44:43.340Z,20.77
2023-04-01T09:48:26.162Z,20.38
2023-04-01T09:51:41.290Z,18.05
2023-04-01T09:54:52.231Z,18.90
2023-04-01T09:58:09.458Z,20.95
2023-04-01T10:02:33.073Z,16.35
2023-04-01T10:05:39.326Z,15.00
2023-04-01T10:09:02.603Z,18.55
2023-04-01T10:12:17.758Z,18.02
2023-04-01T10:16:01.365Z,18.02
2023-04-01T10:18:49.708Z,15.65
2023-04-01T10:22:05.887Z,16.33
2023-04-01T10:25:04.132Z,17.52
2023-04-01T10:28:13.558Z,13.90
2023-04-01T10:31:38.673Z,16.63
2023-04-01T10:34:40.976Z,17.77
2023-04-01T10:37:40.863Z,14.95
2023-04-01T10:40:52.078Z,16.52
2023-04-01T10:44:41.064Z,15.07
2023-04-01T10:47:54.869Z,14.40
2023-04-01T10:50:47.371Z,12.60
2023-04-01T10:54:02.090Z,14.10
2023-04-01T10:57:01.020Z,13.55
2023-04-01T11:00:38.700Z,11.48
2023-04-01T11:04:07.384Z,11.95
2023-04-01T11:07:20.196Z,12.43
2023-04-01T11:10:52.694Z,12.18
2023-04-01T11:13:33.735Z,10.57
2023-04-01T11:16:34.086Z,10.05
2023-04-01T11:19:46.940Z,11.13
2023-04-01T11:23:07.554Z,10.32
2023-04-01T11:26:09.980Z,11.35
2023-04-01T11:29:20.176Z,11.27
2023-04-01T11:32:47.502Z,11.63
2023-04-01T11:36:03.417Z,11.80
2023-04-01T11:39:23.046Z,14.02
2023-04-01T11:43:32.197Z,13.23
2023-04-01T11:47:03.665Z,12.73
2023-04-01T11:50:47.574Z,12.15
2023-04-01T11:54:09.195Z,13.63
2023-04-01T11:57:20.630Z,13.48
2023-04-01T12:00:15.369Z,12.88
2023-04-01T12:03:56.926Z,13.48
2023-04-01T12:07:06.904Z,12.38
2023-04-01T12:10:14.197Z,12.20
2023-04-01T12:13:29.871Z,9.88
2023-04-01T12:16:21.206Z,10.32
2023-04-01T12:19:36.867Z,7.60
2023-04-01T12:22:22.827Z,9.77
2023-04-01T12:25:45.503Z,8.32
2023-04-01T12:29:03.837Z,7.63
2023-04-01T12:32:14.663Z,8.37
2023-04-01T12:35:20.261Z,8.82
2023-04-01T12:38:06.337Z,10.52
2023-04-01T12:41:45.894Z,10.38
2023-04-01T12:44:38.711Z,10.05
2023-04-01T12:47:32.372Z,10.52
2023-04-01T12:51:05.269Z,9.77
2023-04-01T12:54:19.716Z,11.20
2023-04-01T12:57:53.094Z,10.10
2023-04-01T13:01:26.310Z,11.68
2023-04-01T13:05:16.044Z,11.60
2023-04-01T13:08:17.753Z,10.00
2023-04-01T13:11:11.086Z,10.63
2023-04-01T13:15:12.796Z,9.32
2023-04-01T13:18:15.684Z,11.18
2023-04-01T13:22:09.783Z,9.10
2023-04-01T13:26:10.888Z,9.02
2023-04-01T13:29:18.217Z,7.30
2023-04-01T13:36:28.297Z,8.27
2023-04-01T13:39:33.322Z,8.45
2023-04-01T13:42:38.890Z,8.98
2023-04-01T13:45:39.131Z,10.05
2023-04-01T13:48:45.015Z,9.65
2023-04-01T13:51:29.229Z,10.57
2023-04-01T13:54:39.987Z,11.45
2023-04-01T13:57:26.945Z,8.80
2023-04-01T14:01:01.491Z,9.68
2023-04-01T14:04:43.347Z,10.52
2023-04-01T14:07:35.187Z,11.60
2023-04-01T14:10:36.822Z,12.60
2023-04-01T14:13:30.381Z,14.77
2023-04-01T14:16:46.714Z,13.13
2023-04-01T14:19:54.788Z,12.00
2023-04-01T14:23:04.886Z,12.80
2023-04-01T14:26:19.759Z,12.10
2023-04-01T14:29:34.649Z,12.27
2023-04-01T14:32:54.658Z,13.70
2023-04-01T14:36:33.626Z,11.95
2023-04-01T14:39:39.392Z,13.35
2023-04-01T14:42:29.097Z,14.20
2023-04-01T14:45:53.538Z,12.80
2023-04-01T14:48:44.250Z,13.40
2023-04-01T14:51:41.457Z,13.10
2023-04-01T14:54:31.722Z,12.52
2023-04-01T14:57:28.043Z,13.40
2023-04-01T15:00:18.327Z,12.70
2023-04-01T15:03:03.275Z,15.68
2023-04-01T15:06:34.495Z,15.02
2023-04-01T15:10:20.961Z,15.30
2023-04-01T15:13:33.591Z,17.08
2023-04-01T15:16:46.068Z,14.32
2023-04-01T15:20:02.769Z,16.90
2023-04-01T15:23:02.307Z,18.98
2023-04-01T15:26:32.675Z,15.45
2023-04-01T15:29:46.704Z,15.85
2023-04-01T15:33:40.036Z,16.08
2023-04-01T15:36:46.084Z,14.32
2023-04-01T15:40:39.665Z,16.85
2023-04-01T15:43:31.591Z,15.32
2023-04-01T15:46:42.926Z,13.30
2023-04-01T15:49:48.282Z,15.35
2023-04-01T15:52:58.952Z,14.00
2023-04-01T15:56:12.590Z,13.10
2023-04-01T15:59:25.696Z,15.13
2023-04-01T16:02:43.626Z,13.68
2023-04-01T16:06:15.321Z,12.15
2023-04-01T16:08:58.789Z,13.63
2023-04-01T16:11:52.731Z,14.13
2023-04-01T16:14:51.944Z,15.65
2023-04-01T16:17:48.254Z,13.10
2023-04-01T16:21:03.477Z,16.50
2023-04-01T16:24:11.356Z,13.27
2023-04-01T16:27:04.582Z,14.05
2023-04-01T16:30:22.311Z,14.50
2023-04-01T16:33:01.159Z,12.05
2023-04-01T16:36:15.160Z,15.13
2023-04-01T16:39:18.660Z,13.40
2023-04-01T16:42:44.364Z,14.63
2023-04-01T16:45:45.363Z,9.82
2023-04-01T16:49:09.067Z,8.88
2023-04-01T16:52:30.606Z,8.15
2023-04-01T16:56:11.508Z,7.57
2023-04-01T16:59:08.578Z,8.00
2023-04-01T17:01:46.375Z,8.25
2023-04-01T17:04:46.174Z,7.13
2023-04-01T17:08:17.681Z,5.50
2023-04-01T17:10:59.119Z,6.47
2023-04-01T17:13:58.379Z,4.55
2023-04-01T17:17:02.431Z,5.22
2023-04-01T17:20:03.373Z,4.90
2023-04-01T17:22:57.710Z,5.57
2023-04-01T17:25:49.835Z,5.25
2023-04-01T17:29:17.998Z,6.05
2023-04-01T17:33:05.812Z,6.15
2023-04-01T17:36:03.847Z,6.05
2023-04-01T17:39:15.357Z,5.45
2023-04-01T17:42:17.654Z,4.00
2023-04-01T17:45:05.475Z,3.33
2023-04-01T17:48:16.774Z,6.38
2023-04-01T17:51:36.574Z,6.65
2023-04-01T17:54:49.666Z,6.25
2023-04-01T17:58:07.263Z,7.20
2023-04-01T18:01:22.678Z,6.70
2023-04-01T18:04:32.200Z,5.63
2023-04-01T18:07:51.512Z,6.10
2023-04-01T18:13:40.651Z,5.40
2023-04-01T18:16:23.288Z,4.57
2023-04-01T18:19:35.467Z,5.10
2023-04-01T18:22:27.143Z,5.75
2023-04-01T18:25:17.981Z,5.55
2023-04-01T18:28:14.793Z,5.93
2023-04-01T18:31:10.882Z,5.15
2023-04-01T18:34:02.906Z,4.78
2023-04-01T18:37:16.127Z,6.53
2023-04-01T18:39:58.643Z,7.07
2023-04-01T18:43:04.410Z,8.80
2023-04-01T18:45:41.046Z,5.80
2023-04-01T18:48:57.701Z,5.32
2023-04-01T18:52:23.046Z,7.60
2023-04-01T18:55:02.124Z,6.97
2023-04-01T18:57:55.700Z,7.75
2023-04-01T19:01:05.008Z,8.32
2023-04-01T19:04:08.752Z,7.90
2023-04-01T19:06:59.278Z,8.55
2023-04-01T19:09:51.412Z,4.82
2023-04-01T19:12:45.968Z,6.68
2023-04-01T19:15:44.822Z,7.75
2023-04-01T19:18:41.311Z,8.82
2023-04-01T19:22:00.467Z,9.35
2023-04-01T19:27:56.883Z,7.85
2023-04-01T19:30:54.517Z,6.30
2023-04-01T19:33:51.646Z,6.70
2023-04-01T19:37:00.135Z,6.93
2023-04-01T19:39:53.011Z,6.20
2023-04-01T19:42:57.727Z,6.82
2023-04-01T19:45:54.932Z,6.75
2023-04-01T19:49:20.208Z,9.65
2023-04-01T19:52:18.185Z,8.13
2023-04-01T19:55:07.360Z,8.60
2023-04-01T19:58:29.853Z,8.73
2023-04-01T20:01:01.869Z,7.25
2023-04-01T20:03:57.254Z,7.97
2023-04-01T20:06:41.104Z,8.60
2023-04-01T20:09:36.239Z,9.70
2023-04-01T20:12:18.215Z,8.80
2023-04-01T20:14:58.572Z,10.68
2023-04-01T20:17:47.171Z,9.00
2023-04-01T20:20:14.472Z,8.30
2023-04-01T20:22:47.930Z,10.02
2023-04-01T20:25:27.921Z,9.10
2023-04-01T20:28:20.919Z,9.45
2023-04-01T20:31:09.292Z,7.82
2023-04-01T20:34:10.941Z,8.80
2023-04-01T20:37:05.599Z,8.48
2023-04-01T20:39:54.144Z,6.78
2023-04-01T20:43:26.105Z,7.60
2023-04-01T20:46:24.008Z,6.95
2023-04-01T20:49:38.331Z,8.50
2023-04-01T20:52:15.116Z,9.75
2023-04-01T20:55:53.375Z,6.03
2023-04-01T20:59:09.824Z,6.82
2023-04-01T21:02:09.096Z,7.25
2023-04-01T21:06:00.789Z,8.93
2023-04-01T21:09:54.105Z,8.10
2023-04-01T21:12:58.928Z,10.13
2023-04-01T21:16:39.441Z,10.18
2023-04-01T21:19:26.673Z,10.25
2023-04-01T21:22:16.755Z,10.32
2023-04-01T21:25:49.552Z,10.20
2023-04-01T21:29:07.062Z,9.68
2023-04-01T21:32:12.990Z,9.80
2023-04-01T21:35:11.841Z,9.95
2023-04-01T21:38:33.475Z,8.23
2023-04-01T21:41:22.738Z,10.52
2023-04-01T21:44:07.939Z,11.73
2023-04-01T21:47:58.589Z,9.93
2023-04-01T21:50:48.426Z,11.55
2023-04-01T21:54:21.936Z,8.35
2023-04-01T21:57:37.270Z,10.25
2023-04-01T22:00:17.192Z,9.77
2023-04-01T22:03:29.440Z,11.30
2023-04-01T22:06:30.005Z,13.10
2023-04-01T22:09:29.053Z,10.68
2023-04-01T22:12:24.058Z,14.15
2023-04-01T22:15:26.392Z,11.07
2023-04-01T22:21:06.037Z,9.50
2023-04-01T22:24:13.277Z,10.63
2023-04-01T22:27:32.007Z,9.90
2023-04-01T22:30:25.334Z,9.43
2023-04-01T22:33:03.657Z,11.20
2023-04-01T22:35:52.908Z,8.80
2023-04-01T22:39:14.575Z,9.65
2023-04-01T22:42:45.783Z,11.55
2023-04-01T22:46:20.094Z,9.98
2023-04-01T22:49:06.596Z,10.00
2023-04-01T22:52:45.246Z,8.52
2023-04-01T22:55:26.736Z,10.52
2023-04-01T22:58:05.676Z,10.43
2023-04-01T23:00:49.383Z,11.57
2023-04-01T23:03:37.233Z,10.15
2023-04-01T23:06:06.541Z,8.98
2023-04-01T23:09:11.727Z,10.13
2023-04-01T23:12:08.396Z,8.43
2023-04-01T23:15:02.714Z,10.60
2023-04-01T23:18:03.995Z,9.15
2023-04-01T23:21:04.889Z,9.27
2023-04-01T23:23:56.949Z,7.70
2023-04-01T23:26:47.826Z,7.38
2023-04-01T23:29:20.318Z,8.52
2023-04-01T23:32:18.177Z,8.90
2023-04-01T23:34:59.470Z,8.20
2023-04-01T23:37:28.207Z,8.88
2023-04-01T23:40:01.990Z,9.63
2023-04-01T23:42:41.498Z,9.13
2023-04-01T23:45:21.790Z,8.68
2023-04-01T23:47:51.669Z,10.15
2023-04-01T23:50:28.280Z,8.55
2023-04-01T23:53:17.773Z,8.48
2023-04-01T23:55:45.126Z,10.10
2023-04-01T23:58:29.436Z,8.90
